Time;durP1;ratioP1;P1;durP2;ratioP2;P2;SDS_P1;SDS_P2;PMS_P1;PMS_P2;Temp;Humidity;BMP_temperature;BMP_pressure;BME280_temperature;BME280_humidity;BME280_pressure;Samples;Min_cycle;Max_cycle;Signal;HPM_P1;HPM_P2
2023/06/25 00:01:21;;;;;;;7.65;3.13;;;29.40;99.90;;;;;;5053522;28;20320;-60
2023/06/25 00:03:48;;;;;;;7.07;3.72;;;29.40;99.90;;;;;;5051859;28;20024;-58
2023/06/25 00:06:16;;;;;;;4.43;3.08;;;29.40;99.90;;;;;;5043346;28;20097;-59
2023/06/25 00:08:43;;;;;;;2.75;2.17;;;29.40;99.90;;;;;;5055899;28;20033;-60
2023/06/25 00:11:09;;;;;;;9.50;2.13;;;29.40;99.90;;;;;;5047376;28;20022;-59
2023/06/25 00:13:36;;;;;;;3.58;2.40;;;29.30;99.90;;;;;;5052061;28;20036;-59
2023/06/25 00:16:02;;;;;;;6.50;3.17;;;29.30;99.90;;;;;;5052357;28;20033;-58
2023/06/25 00:18:29;;;;;;;7.07;4.35;;;29.30;99.90;;;;;;5063793;28;20079;-60
2023/06/25 00:20:55;;;;;;;7.15;3.83;;;29.30;99.90;;;;;;5048887;28;20236;-59
2023/06/25 00:23:22;;;;;;;7.15;4.00;;;29.30;99.90;;;;;;5040235;28;20033;-58
2023/06/25 00:25:49;;;;;;;6.25;3.22;;;29.30;99.90;;;;;;5045387;28;20099;-60
2023/06/25 00:28:15;;;;;;;3.63;2.15;;;29.30;99.90;;;;;;5051543;28;20021;-60
2023/06/25 00:30:42;;;;;;;5.63;2.45;;;29.30;99.90;;;;;;5048002;28;20052;-60
2023/06/25 00:33:09;;;;;;;2.45;1.90;;;29.40;99.90;;;;;;5054992;28;20232;-58
2023/06/25 00:35:55;;;;;;;4.30;2.25;;;29.40;99.90;;;;;;5047025;28;20030;-58
2023/06/25 00:38:21;;;;;;;4.50;2.15;;;29.30;99.90;;;;;;5050664;28;20021;-59
2023/06/25 00:40:49;;;;;;;19.08;17.38;;;29.30;99.90;;;;;;5037595;28;20021;-58
2023/06/25 00:43:16;;;;;;;27.67;25.35;;;29.40;99.90;;;;;;5042487;28;20266;-57
2023/06/25 00:45:45;;;;;;;18.23;16.40;;;29.40;99.90;;;;;;5046226;28;20029;-58
2023/06/25 00:48:13;;;;;;;114.68;105.95;;;29.50;99.90;;;;;;5043358;28;20064;-61
2023/06/25 00:50:45;;;;;;;16.70;15.23;;;29.50;99.90;;;;;;5036582;28;20277;-59
2023/06/25 00:53:11;;;;;;;;;;;29.50;99.90;;;;;;5042142;28;20088;-59
2023/06/25 00:55:39;;;;;;;4.78;4.22;;;29.40;99.90;;;;;;5030970;28;19916;-58
2023/06/25 01:20:11;;;;;;;4.10;2.00;;;29.50;99.90;;;;;;5113977;27;20659;-57
2023/06/25 01:22:41;;;;;;;3.28;1.42;;;29.50;99.90;;;;;;5101365;28;20059;-57
2023/06/25 01:25:09;;;;;;;6.53;1.80;;;29.40;99.90;;;;;;5100967;28;20042;-55
2023/06/25 01:27:36;;;;;;;5.32;2.42;;;29.50;99.90;;;;;;5098958;28;20299;-57
2023/06/25 01:30:05;;;;;;;3.97;1.75;;;29.50;99.90;;;;;;5101075;28;20028;-53
2023/06/25 01:32:32;;;;;;;5.55;2.00;;;29.40;99.90;;;;;;5101033;28;20024;-58
2023/06/25 01:34:58;;;;;;;6.07;2.25;;;29.30;99.90;;;;;;5100885;28;20032;-57
2023/06/25 01:37:30;;;;;;;7.03;2.15;;;29.20;99.90;;;;;;5094071;28;20051;-56
2023/06/25 01:39:57;;;;;;;3.70;1.98;;;29.20;99.90;;;;;;5096909;28;20032;-57
2023/06/25 01:42:24;;;;;;;8.32;2.25;;;29.20;99.90;;;;;;5098936;28;20024;-57
2023/06/25 01:44:50;;;;;;;4.78;2.10;;;29.30;99.90;;;;;;5099858;28;20034;-56
2023/06/25 01:47:17;;;;;;;10.40;2.70;;;29.30;99.90;;;;;;5099965;28;20020;-58
2023/06/25 01:49:44;;;;;;;3.75;2.15;;;29.20;99.90;;;;;;5100177;28;20099;-59
2023/06/25 01:52:10;;;;;;;5.35;2.40;;;29.20;99.90;;;;;;5100746;28;20028;-59
2023/06/25 01:54:37;;;;;;;4.15;2.20;;;29.30;99.90;;;;;;5101041;28;20024;-59
2023/06/25 01:57:04;;;;;;;7.60;2.35;;;29.40;99.90;;;;;;5100122;28;20354;-56
2023/06/25 01:59:34;;;;;;;7.38;2.60;;;29.40;99.90;;;;;;5100015;28;20220;-56
2023/06/25 02:02:01;;;;;;;5.45;2.83;;;29.40;99.90;;;;;;5095924;28;20099;-54
2023/06/25 02:04:28;;;;;;;6.10;2.50;;;29.30;99.90;;;;;;5100472;28;20066;-61
2023/06/25 02:06:55;;;;;;;6.97;2.35;;;29.20;99.90;;;;;;5099940;28;20020;-54
2023/06/25 02:09:23;;;;;;;4.97;2.03;;;29.30;99.90;;;;;;5094036;28;20024;-55
2023/06/25 02:11:49;;;;;;;3.97;1.60;;;29.20;99.90;;;;;;5082733;28;20021;-59
2023/06/25 02:14:16;;;;;;;5.10;1.60;;;29.30;99.90;;;;;;5080406;28;20029;-57
2023/06/25 02:16:43;;;;;;;5.85;1.75;;;29.30;99.90;;;;;;5079939;28;20024;-55
2023/06/25 02:19:09;;;;;;;14.30;2.15;;;29.40;99.90;;;;;;5074792;28;20301;-56
2023/06/25 02:21:36;;;;;;;7.50;2.13;;;29.40;99.90;;;;;;5053752;28;20088;-53
2023/06/25 02:24:05;;;;;;;3.67;1.60;;;29.40;99.90;;;;;;5062725;28;20086;-56
2023/06/25 02:26:31;;;;;;;5.55;2.38;;;29.40;99.90;;;;;;5057316;28;20336;-54
2023/06/25 02:28:58;;;;;;;7.63;1.55;;;29.50;99.90;;;;;;5060395;28;20082;-57
2023/06/25 02:31:24;;;;;;;4.90;1.70;;;29.30;99.90;;;;;;5060456;28;20071;-60
2023/06/25 02:33:51;;;;;;;5.63;1.70;;;29.30;99.90;;;;;;5060923;28;20032;-61
2023/06/25 02:36:17;;;;;;;6.70;1.98;;;29.10;99.90;;;;;;5046523;28;20455;-59
2023/06/25 02:38:44;;;;;;;4.63;1.42;;;28.90;99.90;;;;;;5046542;28;20029;-62
2023/06/25 02:41:10;;;;;;;6.97;1.55;;;28.90;99.90;;;;;;5061852;28;20040;-55
2023/06/25 02:43:37;;;;;;;8.90;1.35;;;29.00;99.90;;;;;;5066550;28;20032;-60
2023/06/25 02:46:03;;;;;;;5.28;1.50;;;29.20;99.90;;;;;;5057865;28;20033;-60
2023/06/25 02:48:31;;;;;;;6.35;1.40;;;29.40;99.90;;;;;;5054342;28;20247;-60
2023/06/25 02:50:57;;;;;;;9.25;1.42;;;29.40;99.90;;;;;;5057916;28;20040;-57
2023/06/25 02:53:24;;;;;;;8.80;1.60;;;29.50;99.90;;;;;;5066428;28;20029;-61
2023/06/25 02:55:51;;;;;;;6.47;1.63;;;29.40;99.90;;;;;;5065811;28;20036;-60
2023/06/25 02:58:17;;;;;;;4.40;1.30;;;29.50;99.90;;;;;;5064766;28;20028;-59
2023/06/25 03:00:43;;;;;;;7.00;1.33;;;29.50;99.90;;;;;;5053237;28;20312;-60
2023/06/25 03:03:10;;;;;;;11.20;1.30;;;29.40;99.90;;;;;;5060872;28;20201;-62
2023/06/25 03:05:36;;;;;;;6.68;1.13;;;29.40;99.90;;;;;;5065769;28;20021;-61
2023/06/25 03:08:03;;;;;;;7.00;1.30;;;29.50;99.90;;;;;;5066092;28;20033;-61
2023/06/25 03:10:33;;;;;;;8.82;1.25;;;29.40;99.90;;;;;;5065735;28;20036;-60
2023/06/25 03:12:59;;;;;;;7.82;1.85;;;29.40;99.90;;;;;;5065760;28;20028;-61
2023/06/25 03:15:28;;;;;;;7.78;1.63;;;29.40;99.90;;;;;;5065827;28;20028;-59
2023/06/25 03:17:55;;;;;;;5.75;1.80;;;29.30;99.90;;;;;;5065507;28;20033;-60
2023/06/25 03:20:21;;;;;;;7.68;1.60;;;29.30;99.90;;;;;;5065397;28;20032;-59
2023/06/25 03:22:49;;;;;;;3.85;1.10;;;29.20;99.90;;;;;;5065622;28;20021;-63
2023/06/25 03:25:15;;;;;;;7.05;1.50;;;29.10;99.90;;;;;;5065570;28;20194;-62
2023/06/25 03:27:42;;;;;;;4.45;1.02;;;29.10;99.90;;;;;;5065413;28;20028;-61
2023/06/25 03:30:09;;;;;;;5.63;1.30;;;29.10;99.90;;;;;;5065320;28;20036;-61
2023/06/25 03:32:36;;;;;;;6.47;1.30;;;29.10;99.90;;;;;;5064405;28;20087;-59
2023/06/25 03:35:03;;;;;;;5.65;1.23;;;29.10;99.90;;;;;;5063348;28;20029;-60
2023/06/25 03:37:30;;;;;;;6.20;1.38;;;29.10;99.90;;;;;;5059081;28;20394;-57
2023/06/25 03:39:56;;;;;;;11.45;1.90;;;29.10;99.90;;;;;;5065238;28;20025;-60
2023/06/25 03:42:22;;;;;;;11.05;1.85;;;29.10;99.90;;;;;;5065035;28;20059;-57
2023/06/25 03:44:55;;;;;;;7.28;1.60;;;29.00;99.90;;;;;;5065088;28;20032;-59
2023/06/25 03:47:22;;;;;;;6.55;1.58;;;29.00;99.90;;;;;;5064492;28;20255;-60
2023/06/25 03:49:48;;;;;;;5.85;1.60;;;28.90;99.90;;;;;;5064845;28;20212;-60
2023/06/25 03:52:15;;;;;;;7.40;1.50;;;29.00;99.90;;;;;;5064944;28;20066;-61
2023/06/25 03:54:41;;;;;;;7.93;1.65;;;28.90;99.90;;;;;;5064856;28;20328;-61
2023/06/25 03:57:08;;;;;;;10.32;1.48;;;28.90;99.90;;;;;;5064671;28;20217;-60
2023/06/25 03:59:34;;;;;;;6.72;1.45;;;28.90;99.90;;;;;;5065220;28;20087;-60
2023/06/25 04:02:01;;;;;;;10.30;1.48;;;28.90;99.90;;;;;;5055968;28;20017;-59
2023/06/25 04:04:27;;;;;;;6.63;1.33;;;28.90;99.90;;;;;;5056172;28;20080;-62
2023/06/25 04:06:54;;;;;;;9.48;1.50;;;28.90;99.90;;;;;;5063760;28;20045;-62
2023/06/25 04:09:21;;;;;;;10.15;1.60;;;28.90;99.90;;;;;;5063909;28;20040;-60
2023/06/25 04:11:48;;;;;;;7.43;1.42;;;28.70;99.90;;;;;;5064436;28;20135;-59
2023/06/25 04:14:14;;;;;;;6.18;1.42;;;28.70;99.90;;;;;;5063580;28;20045;-60
2023/06/25 04:16:41;;;;;;;6.78;1.67;;;28.70;99.90;;;;;;5062706;28;20048;-58
2023/06/25 04:19:08;;;;;;;9.57;1.38;;;28.60;99.90;;;;;;5062325;28;20048;-62
2023/06/25 04:21:35;;;;;;;4.15;1.30;;;28.60;99.90;;;;;;5062280;28;20032;-60
2023/06/25 04:24:01;;;;;;;5.65;1.30;;;28.60;99.90;;;;;;5066087;28;20028;-58
2023/06/25 04:26:28;;;;;;;4.63;1.45;;;28.60;99.90;;;;;;5062767;28;20084;-59
2023/06/25 04:28:54;;;;;;;9.15;1.58;;;28.60;99.90;;;;;;5064070;28;20155;-61
2023/06/25 04:31:23;;;;;;;6.28;1.40;;;28.60;99.90;;;;;;5052500;28;20033;-57
2023/06/25 04:33:50;;;;;;;8.13;1.60;;;28.60;99.90;;;;;;5057009;28;20057;-62
2023/06/25 04:36:19;;;;;;;8.80;1.55;;;28.60;99.90;;;;;;5052224;28;20033;-58
2023/06/25 04:38:46;;;;;;;7.60;1.35;;;28.50;99.90;;;;;;5057862;28;20299;-61
2023/06/25 04:41:13;;;;;;;5.72;1.25;;;28.60;99.90;;;;;;5044935;28;20107;-62
2023/06/25 04:43:39;;;;;;;4.35;1.30;;;28.50;99.90;;;;;;5052104;28;20043;-64
2023/06/25 04:46:06;;;;;;;9.13;1.38;;;28.50;99.90;;;;;;5063944;28;20039;-63
2023/06/25 04:48:32;;;;;;;9.75;1.20;;;28.50;99.90;;;;;;5064314;28;20057;-60
2023/06/25 04:50:59;;;;;;;9.00;1.38;;;28.40;99.90;;;;;;5046360;28;20134;-61
2023/06/25 04:53:26;;;;;;;7.00;1.65;;;28.50;99.90;;;;;;5064074;28;20096;-62
2023/06/25 04:55:53;;;;;;;5.03;1.00;;;28.50;99.90;;;;;;5063654;28;20324;-61
2023/06/25 04:58:19;;;;;;;9.68;1.38;;;28.40;99.90;;;;;;5064446;28;20339;-59
2023/06/25 05:00:46;;;;;;;9.07;1.23;;;28.40;99.90;;;;;;5068925;28;20227;-64
2023/06/25 05:03:12;;;;;;;6.28;1.30;;;28.50;99.90;;;;;;5057944;28;20095;-62
2023/06/25 05:05:39;;;;;;;10.82;1.52;;;28.60;99.90;;;;;;5062332;28;20052;-61
2023/06/25 05:08:08;;;;;;;7.68;1.45;;;28.60;99.90;;;;;;5058021;28;20024;-58
2023/06/25 05:10:35;;;;;;;9.25;1.40;;;28.70;99.90;;;;;;5071639;28;20091;-61
2023/06/25 05:13:02;;;;;;;6.07;1.02;;;28.70;99.90;;;;;;5083852;28;20092;-60
2023/06/25 05:15:29;;;;;;;4.88;1.20;;;28.60;99.90;;;;;;5075904;28;20067;-62
2023/06/25 05:17:55;;;;;;;4.93;1.40;;;28.60;99.90;;;;;;5063763;28;20051;-62
2023/06/25 05:20:22;;;;;;;7.50;1.27;;;28.60;99.90;;;;;;5063628;28;20032;-63
2023/06/25 05:22:48;;;;;;;9.95;1.65;;;28.60;99.90;;;;;;5063732;28;20025;-64
2023/06/25 05:25:15;;;;;;;6.30;0.90;;;28.50;99.90;;;;;;5063684;28;20021;-63
2023/06/25 05:27:41;;;;;;;6.43;1.33;;;28.50;99.90;;;;;;5063650;28;20044;-62
2023/06/25 05:30:08;;;;;;;13.05;1.58;;;28.50;99.90;;;;;;5063817;28;20047;-63
2023/06/25 05:32:35;;;;;;;5.80;0.90;;;28.40;99.90;;;;;;5063716;28;20032;-62
2023/06/25 05:35:01;;;;;;;7.53;1.15;;;28.40;99.90;;;;;;5063429;28;20037;-63
2023/06/25 05:37:28;;;;;;;5.05;1.25;;;28.40;99.90;;;;;;5063443;28;20025;-62
2023/06/25 05:39:54;;;;;;;7.72;1.50;;;28.40;99.90;;;;;;5063517;28;20021;-63
2023/06/25 05:42:21;;;;;;;7.32;1.35;;;28.50;99.90;;;;;;5062990;28;20016;-60
2023/06/25 05:44:48;;;;;;;4.57;1.10;;;28.50;99.90;;;;;;5063465;28;20041;-61
2023/06/25 05:47:15;;;;;;;6.53;1.33;;;28.50;99.90;;;;;;5063811;28;20088;-63
2023/06/25 05:49:41;;;;;;;5.82;1.02;;;28.50;99.90;;;;;;5063391;28;20037;-62
2023/06/25 05:52:08;;;;;;;6.93;1.40;;;28.50;99.90;;;;;;5063601;28;20021;-62
2023/06/25 05:54:34;;;;;;;10.25;1.45;;;28.50;99.90;;;;;;5064576;28;20051;-62
2023/06/25 05:57:01;;;;;;;9.38;1.40;;;28.50;99.90;;;;;;5067060;28;20079;-59
2023/06/25 05:59:27;;;;;;;5.63;1.20;;;28.50;99.90;;;;;;5049482;28;20251;-62
2023/06/25 06:01:54;;;;;;;7.70;1.45;;;28.50;99.90;;;;;;5067291;28;20025;-62
2023/06/25 06:04:20;;;;;;;5.30;1.23;;;28.50;99.90;;;;;;5067450;28;20036;-62
2023/06/25 06:06:47;;;;;;;9.13;1.20;;;28.50;99.90;;;;;;5067069;28;20039;-62
2023/06/25 06:09:13;;;;;;;4.05;1.17;;;28.50;99.90;;;;;;5067295;28;20208;-62
2023/06/25 06:11:39;;;;;;;6.13;1.38;;;28.50;99.90;;;;;;5066874;28;20033;-62
2023/06/25 06:14:09;;;;;;;6.85;1.50;;;28.50;99.90;;;;;;5067176;28;20092;-63
2023/06/25 06:16:35;;;;;;;6.90;1.20;;;28.50;99.90;;;;;;5067005;28;20028;-62
2023/06/25 06:19:02;;;;;;;7.20;1.40;;;28.50;99.90;;;;;;5066730;28;20053;-63
2023/06/25 06:21:28;;;;;;;4.40;1.30;;;28.40;99.90;;;;;;5066631;28;20238;-62
2023/06/25 06:23:55;;;;;;;8.93;1.35;;;28.50;99.90;;;;;;5067174;28;20029;-62
2023/06/25 06:26:21;;;;;;;4.53;1.02;;;28.50;99.90;;;;;;5066684;28;20024;-61
2023/06/25 06:28:48;;;;;;;5.78;1.23;;;28.40;99.90;;;;;;5066796;28;20028;-63
2023/06/25 06:31:16;;;;;;;3.42;1.33;;;28.40;99.90;;;;;;5066450;28;20161;-61
2023/06/25 06:33:42;;;;;;;8.48;1.27;;;28.40;99.90;;;;;;5066691;28;20047;-63
2023/06/25 06:36:09;;;;;;;6.80;1.48;;;28.40;99.90;;;;;;5066442;28;20346;-62
2023/06/25 06:38:35;;;;;;;3.55;1.17;;;28.40;99.90;;;;;;5066659;28;20060;-63
2023/06/25 06:41:02;;;;;;;5.80;1.17;;;28.40;99.90;;;;;;5066383;28;20309;-63
2023/06/25 06:43:28;;;;;;;3.88;1.02;;;28.40;99.90;;;;;;5066143;28;20021;-63
2023/06/25 06:45:55;;;;;;;7.28;1.40;;;28.30;99.90;;;;;;5066705;28;20029;-62
2023/06/25 06:48:21;;;;;;;4.20;1.15;;;28.40;99.90;;;;;;5066993;28;20037;-62
2023/06/25 06:50:48;;;;;;;4.32;1.02;;;28.40;99.90;;;;;;5066435;28;20037;-62
2023/06/25 06:53:14;;;;;;;4.68;1.15;;;28.40;99.90;;;;;;5066480;28;20056;-62
2023/06/25 06:55:41;;;;;;;4.53;1.17;;;28.40;99.90;;;;;;5066226;28;20040;-62
2023/06/25 06:58:07;;;;;;;6.65;1.33;;;28.40;99.90;;;;;;5066082;28;20025;-62
2023/06/25 07:00:34;;;;;;;5.43;1.48;;;28.50;99.90;;;;;;5065987;28;20017;-66
2023/06/25 07:03:00;;;;;;;3.67;1.27;;;28.40;99.90;;;;;;5066012;28;20029;-61
2023/06/25 07:05:27;;;;;;;3.42;1.83;;;28.40;99.90;;;;;;5065675;28;20020;-61
2023/06/25 07:07:53;;;;;;;6.30;1.42;;;28.40;99.90;;;;;;5065878;28;20024;-59
2023/06/25 07:10:20;;;;;;;4.82;1.10;;;28.40;99.90;;;;;;5065890;28;20029;-61
2023/06/25 07:12:46;;;;;;;7.55;1.50;;;28.40;99.90;;;;;;5065760;28;20025;-58
2023/06/25 07:15:12;;;;;;;4.93;0.95;;;28.40;99.90;;;;;;5065643;28;20039;-62
2023/06/25 07:17:39;;;;;;;10.00;1.50;;;28.40;99.90;;;;;;5065738;28;20107;-63
2023/06/25 07:20:07;;;;;;;5.40;1.30;;;28.40;99.90;;;;;;5045776;28;20074;-63
2023/06/25 07:22:33;;;;;;;5.45;1.25;;;28.40;99.90;;;;;;5045632;28;20268;-59
2023/06/25 07:25:00;;;;;;;7.60;1.27;;;28.40;99.90;;;;;;5045578;28;20040;-60
2023/06/25 07:27:27;;;;;;;8.05;1.25;;;28.40;99.90;;;;;;5046026;28;20085;-62
2023/06/25 07:29:53;;;;;;;11.95;1.27;;;28.40;99.90;;;;;;5046269;28;20021;-61
2023/06/25 07:32:20;;;;;;;6.53;1.42;;;28.40;99.90;;;;;;5045549;28;20033;-60
2023/06/25 07:34:46;;;;;;;11.32;1.63;;;28.40;99.90;;;;;;5045563;28;20017;-62
2023/06/25 07:37:13;;;;;;;4.82;1.10;;;28.40;99.90;;;;;;5045245;28;20025;-57
2023/06/25 07:39:39;;;;;;;6.72;1.67;;;28.40;99.90;;;;;;5045239;28;20037;-58
2023/06/25 07:42:06;;;;;;;5.53;1.40;;;28.30;99.90;;;;;;5045521;28;20313;-62
2023/06/25 07:44:33;;;;;;;7.32;1.20;;;28.30;99.90;;;;;;5045676;28;20033;-63
2023/06/25 07:46:59;;;;;;;7.05;1.17;;;28.30;99.90;;;;;;5045430;28;20029;-64
2023/06/25 07:49:26;;;;;;;6.57;1.20;;;28.30;99.90;;;;;;5046057;28;20063;-59
2023/06/25 07:51:53;;;;;;;3.90;1.17;;;28.30;99.90;;;;;;5045149;28;20273;-59
2023/06/25 07:54:20;;;;;;;5.53;1.27;;;28.30;99.90;;;;;;5045583;28;20041;-63
2023/06/25 07:56:46;;;;;;;10.18;1.55;;;28.20;99.90;;;;;;5045221;28;20025;-60
2023/06/25 07:59:14;;;;;;;8.15;1.50;;;28.20;99.90;;;;;;5045237;28;20269;-62
2023/06/25 08:01:40;;;;;;;5.05;1.33;;;28.20;99.90;;;;;;5045133;28;20252;-64
2023/06/25 08:04:07;;;;;;;6.03;1.42;;;28.30;99.90;;;;;;5045374;28;20025;-61
2023/06/25 08:06:34;;;;;;;7.15;1.02;;;28.30;99.90;;;;;;5044752;28;20035;-61
2023/06/25 08:09:00;;;;;;;6.20;1.20;;;28.30;99.90;;;;;;5044907;28;20033;-63
2023/06/25 08:11:27;;;;;;;7.32;1.33;;;28.30;99.90;;;;;;5044686;28;20029;-62
2023/06/25 08:13:53;;;;;;;5.05;1.10;;;28.30;99.90;;;;;;5044962;28;20025;-59
2023/06/25 08:16:20;;;;;;;12.70;1.40;;;28.30;99.90;;;;;;5044729;28;20059;-62
2023/06/25 08:18:46;;;;;;;5.88;0.98;;;28.30;99.90;;;;;;5052946;28;20055;-60
2023/06/25 08:21:12;;;;;;;9.73;1.30;;;28.30;99.90;;;;;;5064464;28;20050;-59
2023/06/25 08:23:39;;;;;;;5.25;1.38;;;28.30;99.90;;;;;;5064662;28;20054;-63
2023/06/25 08:26:06;;;;;;;11.57;1.33;;;28.30;99.90;;;;;;5064369;28;20336;-63
2023/06/25 08:28:33;;;;;;;13.20;1.50;;;28.30;99.90;;;;;;5064546;28;20037;-59
2023/06/25 08:30:59;;;;;;;5.97;1.40;;;28.30;99.90;;;;;;5064356;28;20194;-62
2023/06/25 08:33:26;;;;;;;5.22;1.33;;;28.30;99.90;;;;;;5064652;28;20247;-62
2023/06/25 08:35:52;;;;;;;8.35;1.10;;;28.20;99.90;;;;;;5064309;28;20044;-61
2023/06/25 08:38:21;;;;;;;5.22;1.20;;;28.20;99.90;;;;;;5064274;28;20033;-61
2023/06/25 08:40:48;;;;;;;9.07;1.45;;;28.20;99.90;;;;;;5064165;28;20024;-62
2023/06/25 08:43:14;;;;;;;4.78;1.10;;;28.20;99.90;;;;;;5064383;28;20025;-62
2023/06/25 08:45:42;;;;;;;5.22;1.10;;;28.20;99.90;;;;;;5064291;28;20028;-64
2023/06/25 08:48:13;;;;;;;5.95;1.00;;;28.20;99.90;;;;;;5064373;28;20203;-64
2023/06/25 08:50:43;;;;;;;3.90;1.00;;;28.10;99.90;;;;;;5064173;28;20029;-62
2023/06/25 08:53:11;;;;;;;4.70;1.10;;;28.10;99.90;;;;;;5064130;28;20039;-62
2023/06/25 08:55:39;;;;;;;5.30;1.00;;;28.20;99.90;;;;;;5064148;28;20027;-63
2023/06/25 08:58:06;;;;;;;7.95;1.13;;;28.20;99.90;;;;;;5063938;28;20033;-63
2023/06/25 09:00:32;;;;;;;3.85;1.10;;;28.30;99.90;;;;;;5064085;28;20079;-64
2023/06/25 09:02:59;;;;;;;3.10;1.00;;;28.20;99.90;;;;;;5063955;28;20048;-61
2023/06/25 09:05:27;;;;;;;4.07;0.80;;;28.20;99.90;;;;;;5063805;28;20235;-61
2023/06/25 09:07:54;;;;;;;6.70;1.15;;;28.20;99.90;;;;;;5063939;28;20040;-60
2023/06/25 09:10:21;;;;;;;6.40;0.90;;;28.30;99.90;;;;;;5063749;28;20317;-61
2023/06/25 09:12:49;;;;;;;5.22;0.73;;;28.20;99.90;;;;;;5064016;28;20066;-62
2023/06/25 09:15:23;;;;;;;3.53;0.90;;;28.20;99.90;;;;;;5063972;28;20217;-62
2023/06/25 09:17:55;;;;;;;4.43;0.90;;;28.20;99.90;;;;;;5063667;28;20098;-62
2023/06/25 09:20:22;;;;;;;6.47;0.90;;;28.20;99.90;;;;;;5063798;28;20059;-67
2023/06/25 09:22:53;;;;;;;4.93;1.02;;;28.20;99.90;;;;;;5063869;28;20021;-65
2023/06/25 09:25:29;;;;;;;5.35;1.00;;;28.10;99.90;;;;;;5063610;28;20033;-64
2023/06/25 09:27:58;;;;;;;4.90;0.95;;;28.10;99.90;;;;;;5063762;28;20208;-65
2023/06/25 09:30:25;;;;;;;5.57;1.08;;;28.10;99.90;;;;;;5065846;28;20328;-62
2023/06/25 09:32:52;;;;;;;6.63;1.25;;;28.20;99.90;;;;;;5067894;28;20328;-62
2023/06/25 09:35:23;;;;;;;8.10;1.00;;;28.10;99.90;;;;;;5067793;28;20217;-62
2023/06/25 09:37:53;;;;;;;5.28;1.30;;;28.10;99.90;;;;;;5067772;28;20041;-63
2023/06/25 09:40:20;;;;;;;6.70;0.90;;;28.10;99.90;;;;;;5067587;28;20174;-62
2023/06/25 09:42:50;;;;;;;9.27;1.02;;;28.10;99.90;;;;;;5067904;28;20032;-62
2023/06/25 09:45:16;;;;;;;6.03;0.70;;;28.00;99.90;;;;;;5067590;28;20025;-62
2023/06/25 09:47:45;;;;;;;7.22;1.02;;;28.00;99.90;;;;;;5067455;28;20028;-63
2023/06/25 09:50:28;;;;;;;8.63;0.80;;;28.00;99.90;;;;;;5067830;28;20036;-63
2023/06/25 09:52:54;;;;;;;;;;;28.00;99.90;;;;;;5067605;28;20080;-62
2023/06/25 09:55:21;;;;;;;4.63;0.80;;;28.10;99.90;;;;;;5067260;28;19905;-63
2023/06/25 09:57:49;;;;;;;6.25;0.77;;;28.00;99.90;;;;;;5067269;28;20215;-63
2023/06/25 10:00:17;;;;;;;6.60;0.68;;;28.10;99.90;;;;;;5067388;28;20048;-65
2023/06/25 10:02:47;;;;;;;5.95;1.00;;;28.10;99.90;;;;;;5067012;28;20060;-66
2023/06/25 10:05:13;;;;;;;5.95;0.70;;;28.00;99.90;;;;;;5067128;28;20024;-62
2023/06/25 10:07:41;;;;;;;9.18;1.10;;;28.00;99.90;;;;;;5066929;28;20029;-62
2023/06/25 10:10:18;;;;;;;5.13;0.85;;;28.00;99.90;;;;;;5066784;28;20024;-63
2023/06/25 10:12:44;;;;;;;5.72;0.85;;;28.10;99.90;;;;;;5066990;28;20084;-63
2023/06/25 10:15:11;;;;;;;5.05;0.88;;;28.10;99.90;;;;;;5067153;28;20033;-64
2023/06/25 10:17:47;;;;;;;8.07;1.00;;;28.10;99.90;;;;;;5067113;28;20067;-65
2023/06/25 10:20:13;;;;;;;5.80;0.77;;;28.10;99.90;;;;;;5066763;28;20107;-64
2023/06/25 10:22:43;;;;;;;5.20;0.88;;;28.10;99.90;;;;;;5066782;28;20025;-63
2023/06/25 10:25:10;;;;;;;9.00;1.10;;;28.00;99.90;;;;;;5067010;28;20052;-64
2023/06/25 10:27:37;;;;;;;9.82;1.08;;;28.00;99.90;;;;;;5066945;28;20204;-63
2023/06/25 10:30:13;;;;;;;10.23;0.80;;;28.00;99.90;;;;;;5066795;28;20017;-63
2023/06/25 10:32:42;;;;;;;10.40;1.15;;;28.00;99.90;;;;;;5066677;28;20029;-65
2023/06/25 10:35:16;;;;;;;9.02;1.15;;;28.00;99.90;;;;;;5066516;28;20371;-65
2023/06/25 10:37:43;;;;;;;10.23;1.13;;;28.00;99.90;;;;;;5066808;28;20056;-63
2023/06/25 10:40:10;;;;;;;12.10;1.58;;;28.00;99.90;;;;;;5066270;28;20036;-63
2023/06/25 10:42:37;;;;;;;11.25;1.17;;;28.00;99.90;;;;;;5066487;28;20241;-63
2023/06/25 10:45:05;;;;;;;12.20;1.30;;;28.00;99.90;;;;;;5066304;28;20094;-62
2023/06/25 10:47:32;;;;;;;18.73;1.70;;;28.10;99.90;;;;;;5066513;28;20032;-62
2023/06/25 10:49:58;;;;;;;8.27;1.15;;;28.10;99.90;;;;;;5066169;28;20017;-61
2023/06/25 10:52:25;;;;;;;18.25;1.80;;;28.10;99.90;;;;;;5065747;28;20029;-57
2023/06/25 10:54:55;;;;;;;12.45;2.00;;;28.10;99.90;;;;;;5065968;28;20025;-59
2023/06/25 10:57:21;;;;;;;9.68;1.63;;;28.10;99.90;;;;;;5066218;28;20020;-59
2023/06/25 10:59:50;;;;;;;11.60;1.70;;;28.00;99.90;;;;;;5066304;28;20031;-62
2023/06/25 11:02:17;;;;;;;11.43;1.73;;;28.00;99.90;;;;;;5065729;28;20152;-60
2023/06/25 11:04:51;;;;;;;16.65;2.28;;;28.00;99.90;;;;;;5065892;28;20017;-62
2023/06/25 11:07:19;;;;;;;12.00;2.20;;;28.00;99.90;;;;;;5065892;28;20028;-64
2023/06/25 11:09:50;;;;;;;12.35;2.47;;;28.10;99.90;;;;;;5065552;28;20028;-61
2023/06/25 11:12:18;;;;;;;9.82;1.95;;;28.20;99.90;;;;;;5065280;28;20029;-56
2023/06/25 11:14:45;;;;;;;11.82;2.17;;;28.20;99.90;;;;;;5065907;28;20040;-55
2023/06/25 11:17:15;;;;;;;13.48;2.45;;;28.10;99.90;;;;;;5064435;28;20021;-63
2023/06/25 11:19:42;;;;;;;11.90;2.03;;;28.20;99.90;;;;;;5064727;28;20044;-60
2023/06/25 11:22:08;;;;;;;7.68;1.50;;;28.20;99.90;;;;;;5065462;28;20080;-60
2023/06/25 11:24:37;;;;;;;8.50;1.63;;;28.20;99.90;;;;;;5068588;28;20032;-60
2023/06/25 11:27:03;;;;;;;6.03;1.25;;;28.20;99.90;;;;;;5074449;28;20020;-60
2023/06/25 11:29:41;;;;;;;8.38;1.73;;;28.30;99.90;;;;;;5065062;28;20040;-61
2023/06/25 11:32:10;;;;;;;5.80;1.75;;;28.20;99.90;;;;;;5059057;28;20029;-62
2023/06/25 11:34:43;;;;;;;6.80;1.50;;;28.20;99.90;;;;;;5050785;28;20075;-58
2023/06/25 11:37:14;;;;;;;6.32;1.83;;;28.30;99.90;;;;;;5045281;28;20029;-60
2023/06/25 11:39:49;;;;;;;9.18;1.70;;;28.30;99.90;;;;;;5045117;28;20048;-58
2023/06/25 11:42:21;;;;;;;4.45;1.15;;;28.40;99.90;;;;;;5045478;28;20029;-61
2023/06/25 11:45:05;;;;;;;3.67;1.30;;;28.30;99.90;;;;;;5054243;28;20029;-62
2023/06/25 11:47:32;;;;;;;10.77;1.60;;;28.30;99.90;;;;;;5064907;28;20025;-60
2023/06/25 11:50:00;;;;;;;6.55;1.30;;;28.30;99.90;;;;;;5065151;28;20028;-61
2023/06/25 11:52:27;;;;;;;4.57;1.15;;;28.40;99.90;;;;;;5064222;28;20309;-61
2023/06/25 11:54:53;;;;;;;5.85;1.08;;;28.40;99.90;;;;;;5064865;28;20025;-59
2023/06/25 11:57:20;;;;;;;8.27;1.27;;;28.40;99.90;;;;;;5064866;28;20375;-62
2023/06/25 11:59:46;;;;;;;6.13;1.00;;;28.40;99.90;;;;;;5064882;28;20021;-62
2023/06/25 12:02:13;;;;;;;6.30;1.00;;;28.40;99.90;;;;;;5064602;28;20021;-60
2023/06/25 12:04:39;;;;;;;4.28;1.05;;;28.30;99.90;;;;;;5064641;28;20096;-60
2023/06/25 12:07:06;;;;;;;6.03;1.02;;;28.30;99.90;;;;;;5064255;28;20021;-56
2023/06/25 12:09:33;;;;;;;3.00;1.00;;;28.30;99.90;;;;;;5064934;28;20051;-57
2023/06/25 12:11:59;;;;;;;10.57;1.40;;;28.30;99.90;;;;;;5064602;28;20048;-62
2023/06/25 12:14:26;;;;;;;8.27;1.70;;;28.30;99.90;;;;;;5065148;28;20209;-63
2023/06/25 12:16:52;;;;;;;5.70;1.60;;;28.30;99.90;;;;;;5064879;28;20025;-62
2023/06/25 12:19:19;;;;;;;8.23;2.00;;;28.30;99.90;;;;;;5064259;28;20072;-62
2023/06/25 12:21:46;;;;;;;8.95;2.80;;;28.40;99.90;;;;;;5064496;28;20043;-60
2023/06/25 12:24:13;;;;;;;7.30;2.65;;;28.40;99.90;;;;;;5064151;28;20032;-60
2023/06/25 12:26:39;;;;;;;10.48;2.40;;;28.50;99.90;;;;;;5064255;28;20028;-61
2023/06/25 12:29:06;;;;;;;6.38;1.90;;;28.50;99.90;;;;;;5064833;28;20017;-62
2023/06/25 12:31:32;;;;;;;4.82;2.28;;;28.50;99.90;;;;;;5064320;28;20029;-61
2023/06/25 12:33:59;;;;;;;5.47;2.20;;;28.50;99.90;;;;;;5064640;28;20100;-61
2023/06/25 12:36:25;;;;;;;6.22;2.28;;;28.50;99.90;;;;;;5063885;28;20024;-60
2023/06/25 12:38:52;;;;;;;5.88;2.72;;;28.60;99.90;;;;;;5063557;28;20025;-60
2023/06/25 12:41:19;;;;;;;6.68;2.90;;;28.60;99.90;;;;;;5064016;28;20089;-58
2023/06/25 12:43:45;;;;;;;8.50;4.63;;;28.70;99.90;;;;;;5064308;28;20013;-64
2023/06/25 12:46:11;;;;;;;11.15;6.47;;;28.70;99.90;;;;;;5063929;28;20063;-61
2023/06/25 12:48:38;;;;;;;7.43;4.53;;;28.70;99.90;;;;;;5064058;28;20056;-62
2023/06/25 12:51:04;;;;;;;9.82;4.28;;;28.70;99.90;;;;;;5064030;28;20048;-62
2023/06/25 12:53:31;;;;;;;8.40;4.25;;;28.70;99.90;;;;;;5064145;28;20100;-61
2023/06/25 12:55:57;;;;;;;12.57;4.45;;;28.60;99.90;;;;;;5063867;28;20155;-62
2023/06/25 12:58:24;;;;;;;9.00;3.88;;;28.70;99.90;;;;;;5064066;28;20025;-61
2023/06/25 13:00:50;;;;;;;6.70;3.42;;;28.70;99.90;;;;;;5063990;28;20062;-62
2023/06/25 13:03:18;;;;;;;5.38;3.17;;;28.70;99.90;;;;;;5063944;28;20032;-60
2023/06/25 13:05:45;;;;;;;6.03;4.00;;;28.70;99.90;;;;;;5064300;28;20017;-63
2023/06/25 13:08:15;;;;;;;6.85;3.50;;;28.80;99.90;;;;;;5064013;28;20048;-62